createdAt,value
2018-06-01T00:01:26.760Z,14.85
2018-06-01T00:03:54.184Z,11.48
2018-06-01T00:06:21.593Z,9.63
2018-06-01T00:08:49.021Z,12.50
2018-06-01T00:11:16.450Z,12.43
2018-06-01T00:13:43.863Z,11.12
2018-06-01T00:16:11.293Z,11.05
2018-06-01T00:18:38.725Z,10.55
2018-06-01T00:21:06.136Z,9.50
2018-06-01T00:23:33.580Z,13.52
2018-06-01T00:26:01.832Z,10.30
2018-06-01T00:28:29.268Z,13.43
2018-06-01T00:30:56.672Z,7.05
2018-06-01T00:33:24.097Z,9.32
2018-06-01T00:35:51.500Z,9.50
2018-06-01T00:38:18.937Z,12.35
2018-06-01T00:40:46.371Z,11.27
2018-06-01T00:43:13.793Z,9.73
2018-06-01T00:45:41.197Z,9.00
2018-06-01T00:48:08.621Z,9.88
2018-06-01T00:50:36.042Z,9.65
2018-06-01T00:53:03.466Z,14.00
2018-06-01T00:55:30.892Z,11.15
2018-06-01T00:57:58.315Z,8.60
2018-06-01T01:00:25.712Z,7.32
2018-06-01T01:02:53.140Z,10.00
2018-06-01T01:05:20.557Z,8.32
2018-06-01T01:07:47.981Z,9.82
2018-06-01T01:10:15.408Z,7.72
2018-06-01T01:12:42.829Z,11.43
2018-06-01T01:15:10.248Z,10.10
2018-06-01T01:17:37.664Z,9.65
2018-06-01T01:20:05.081Z,9.77
2018-06-01T01:22:32.497Z,10.15
2018-06-01T01:24:59.924Z,10.38
2018-06-01T01:27:27.325Z,9.27
2018-06-01T01:29:54.737Z,7.95
2018-06-01T01:32:22.174Z,12.07
2018-06-01T01:34:49.600Z,10.05
2018-06-01T01:37:22.943Z,12.52
2018-06-01T01:39:50.372Z,10.82
2018-06-01T01:42:17.776Z,9.10
2018-06-01T01:44:45.197Z,13.32
2018-06-01T01:47:12.616Z,8.80
2018-06-01T01:49:40.031Z,8.52
2018-06-01T01:52:07.441Z,9.30
2018-06-01T01:54:34.856Z,9.65
2018-06-01T01:57:02.260Z,7.28
2018-06-01T01:59:29.679Z,8.80
2018-06-01T02:01:57.093Z,10.55
2018-06-01T02:04:24.525Z,10.13
2018-06-01T02:06:51.924Z,9.07
2018-06-01T02:09:19.362Z,8.30
2018-06-01T02:11:46.771Z,10.52
2018-06-01T02:14:14.185Z,7.10
2018-06-01T02:16:41.592Z,8.40
2018-06-01T02:19:09.013Z,7.62
2018-06-01T02:21:36.424Z,6.72
2018-06-01T02:24:03.845Z,8.77
2018-06-01T02:26:31.263Z,9.85
2018-06-01T02:28:58.676Z,7.37
2018-06-01T02:31:26.088Z,9.00
2018-06-01T02:33:53.511Z,7.93
2018-06-01T02:36:20.912Z,5.68
2018-06-01T02:38:48.333Z,7.40
2018-06-01T02:41:15.745Z,9.20
2018-06-01T02:43:43.161Z,6.78
2018-06-01T02:46:10.573Z,11.20
2018-06-01T02:48:37.993Z,6.37
2018-06-01T02:51:05.400Z,9.80
2018-06-01T02:53:32.827Z,7.30
2018-06-01T02:56:00.232Z,7.60
2018-06-01T02:58:27.656Z,10.18
2018-06-01T03:00:55.067Z,8.27
2018-06-01T03:03:22.500Z,7.93
2018-06-01T03:05:49.908Z,7.85
2018-06-01T03:08:17.312Z,6.95
2018-06-01T03:10:44.733Z,7.80
2018-06-01T03:13:12.152Z,10.60
2018-06-01T03:15:39.574Z,6.10
2018-06-01T03:18:06.984Z,10.38
2018-06-01T03:20:34.408Z,6.32
2018-06-01T03:23:01.804Z,7.43
2018-06-01T03:25:29.239Z,11.18
2018-06-01T03:27:56.648Z,14.00
2018-06-01T03:30:24.065Z,6.50
2018-06-01T03:32:51.476Z,9.48
2018-06-01T03:35:18.919Z,11.07
2018-06-01T03:37:46.329Z,9.65
2018-06-01T03:40:13.749Z,6.30
2018-06-01T03:42:41.157Z,7.95
2018-06-01T03:45:08.580Z,13.65
2018-06-01T03:50:09.748Z,10.52
2018-06-01T03:52:37.156Z,7.57
2018-06-01T03:55:04.568Z,8.95
2018-06-01T03:57:31.994Z,12.20
2018-06-01T03:59:59.412Z,10.38
2018-06-01T04:02:26.840Z,6.80
2018-06-01T04:04:54.268Z,7.05
2018-06-01T04:07:21.684Z,10.88
2018-06-01T04:09:49.113Z,8.55
2018-06-01T04:12:16.529Z,8.35
2018-06-01T04:14:43.957Z,12.10
2018-06-01T04:17:11.361Z,8.35
2018-06-01T04:19:38.784Z,10.85
2018-06-01T04:22:06.212Z,9.55
2018-06-01T04:24:33.629Z,6.43
2018-06-01T04:27:01.028Z,7.62
2018-06-01T04:29:28.449Z,9.82
2018-06-01T04:31:55.873Z,13.90
2018-06-01T04:34:23.296Z,7.43
2018-06-01T04:36:50.699Z,7.85
2018-06-01T04:39:18.121Z,8.38
2018-06-01T04:41:45.534Z,8.13
2018-06-01T04:44:12.956Z,6.45
2018-06-01T04:46:40.364Z,9.82
2018-06-01T04:49:07.783Z,7.18
2018-06-01T04:51:35.183Z,7.45
2018-06-01T04:54:02.605Z,9.32
2018-06-01T04:56:30.012Z,6.47
2018-06-01T04:58:57.441Z,10.00
2018-06-01T05:01:24.866Z,6.18
2018-06-01T05:03:52.314Z,10.65
2018-06-01T05:06:19.723Z,6.62
2018-06-01T05:08:47.128Z,5.32
2018-06-01T05:11:14.549Z,8.75
2018-06-01T05:13:41.964Z,8.57
2018-06-01T05:16:09.376Z,8.77
2018-06-01T05:18:36.785Z,10.25
2018-06-01T05:21:04.212Z,6.75
2018-06-01T05:23:31.620Z,6.90
2018-06-01T05:25:59.039Z,7.12
2018-06-01T05:28:26.450Z,9.68
2018-06-01T05:30:53.876Z,10.43
2018-06-01T05:33:21.284Z,12.00
2018-06-01T05:35:48.709Z,10.18
2018-06-01T05:38:16.120Z,7.30
2018-06-01T05:40:43.543Z,10.35
2018-06-01T05:43:10.949Z,8.35
2018-06-01T05:45:38.371Z,11.52
2018-06-01T05:48:05.774Z,8.32
2018-06-01T05:50:33.200Z,8.75
2018-06-01T05:53:00.639Z,7.55
2018-06-01T05:55:28.058Z,9.73
2018-06-01T05:57:55.500Z,10.38
2018-06-01T06:00:22.913Z,9.30
2018-06-01T06:02:50.325Z,13.88
2018-06-01T06:05:17.765Z,10.32
2018-06-01T06:07:45.168Z,8.00
2018-06-01T06:10:12.593Z,16.20
2018-06-01T06:12:40.018Z,11.95
2018-06-01T06:15:07.434Z,13.88
2018-06-01T06:17:34.857Z,15.32
2018-06-01T06:20:02.273Z,13.77
2018-06-01T06:22:29.696Z,12.13
2018-06-01T06:24:57.148Z,14.60
2018-06-01T06:27:24.584Z,14.52
2018-06-01T06:29:52.004Z,18.35
2018-06-01T06:32:19.433Z,16.50
2018-06-01T06:34:46.848Z,17.35
2018-06-01T06:37:14.273Z,18.27
2018-06-01T06:39:41.685Z,22.08
2018-06-01T06:42:09.111Z,23.33
2018-06-01T06:44:36.524Z,20.50
2018-06-01T06:47:03.949Z,17.70
2018-06-01T06:49:31.368Z,15.05
2018-06-01T06:51:58.793Z,24.30
2018-06-01T06:54:26.204Z,17.50
2018-06-01T06:56:53.624Z,26.60
2018-06-01T06:59:21.045Z,20.52
2018-06-01T07:01:48.476Z,21.67
2018-06-01T07:04:15.885Z,22.52
2018-06-01T07:06:43.313Z,18.25
2018-06-01T07:09:10.732Z,16.75
2018-06-01T07:11:38.148Z,23.75
2018-06-01T07:14:05.569Z,25.30
2018-06-01T07:16:32.996Z,27.35
2018-06-01T07:19:00.411Z,24.83
2018-06-01T07:21:27.834Z,25.75
2018-06-01T07:23:55.255Z,33.50
2018-06-01T07:26:22.677Z,25.58
2018-06-01T07:28:50.093Z,25.23
2018-06-01T07:31:17.529Z,25.58
2018-06-01T07:33:44.954Z,28.02
2018-06-01T07:36:12.377Z,30.92
2018-06-01T07:38:39.798Z,26.05
2018-06-01T07:41:07.249Z,26.48
2018-06-01T07:43:34.667Z,19.70
2018-06-01T07:46:02.109Z,30.42
2018-06-01T07:48:29.528Z,21.15
2018-06-01T07:50:56.950Z,25.98
2018-06-01T07:53:24.372Z,29.73
2018-06-01T07:55:51.799Z,30.23
2018-06-01T07:58:19.216Z,28.85
2018-06-01T08:00:46.632Z,35.97
2018-06-01T08:03:14.062Z,32.58
2018-06-01T08:05:41.481Z,38.03
2018-06-01T08:08:08.909Z,35.58
2018-06-01T08:10:36.320Z,35.40
2018-06-01T08:13:03.744Z,44.42
2018-06-01T08:15:31.165Z,45.10
2018-06-01T08:17:58.599Z,39.60
2018-06-01T08:20:26.008Z,33.28
2018-06-01T08:22:53.437Z,30.37
2018-06-01T08:25:20.848Z,35.42
2018-06-01T08:27:48.297Z,34.25
2018-06-01T08:30:15.713Z,44.35
2018-06-01T08:32:43.133Z,39.20
2018-06-01T08:35:10.552Z,57.15
2018-06-01T08:37:37.984Z,35.17
2018-06-01T08:40:05.404Z,51.28
2018-06-01T08:42:32.824Z,38.72
2018-06-01T08:45:00.241Z,53.58
2018-06-01T08:47:27.692Z,48.63
2018-06-01T08:49:55.141Z,55.97
2018-06-01T08:52:22.574Z,54.72
2018-06-01T08:54:50.003Z,57.58
2018-06-01T08:57:17.428Z,33.63
2018-06-01T08:59:44.849Z,53.78
2018-06-01T09:02:12.288Z,49.75
2018-06-01T09:04:39.779Z,47.78
2018-06-01T09:07:07.133Z,90.30
2018-06-01T09:09:34.586Z,55.00
2018-06-01T09:12:02.018Z,60.63
2018-06-01T09:14:29.436Z,66.57
2018-06-01T09:16:56.859Z,72.50
2018-06-01T09:19:24.288Z,72.65
2018-06-01T09:21:51.750Z,95.93
2018-06-01T09:24:19.183Z,73.32
2018-06-01T09:26:46.649Z,102.45
2018-06-01T09:29:14.064Z,87.32
2018-06-01T09:31:41.484Z,61.63
2018-06-01T09:34:08.920Z,92.32
2018-06-01T09:36:36.354Z,116.43
2018-06-01T09:39:03.792Z,109.40
2018-06-01T09:41:31.212Z,94.35
2018-06-01T09:43:58.651Z,101.05
2018-06-01T09:46:26.074Z,88.43
2018-06-01T09:48:53.535Z,76.40
2018-06-01T09:51:20.960Z,100.43
2018-06-01T09:53:48.397Z,136.17
2018-06-01T09:56:15.817Z,81.20
2018-06-01T09:58:43.240Z,90.70
2018-06-01T10:01:10.660Z,106.33
2018-06-01T10:03:38.089Z,93.50
2018-06-01T10:06:05.508Z,66.53
2018-06-01T10:08:32.936Z,115.20
2018-06-01T10:11:06.061Z,104.73
2018-06-01T10:13:33.484Z,89.80
2018-06-01T10:16:00.901Z,93.87
2018-06-01T10:18:28.337Z,108.43
2018-06-01T10:20:55.759Z,107.80
2018-06-01T10:23:23.190Z,107.67
2018-06-01T10:25:50.612Z,140.27
2018-06-01T10:28:18.044Z,144.83
2018-06-01T10:30:45.554Z,108.37
2018-06-01T10:33:12.977Z,94.57
2018-06-01T10:35:40.432Z,101.63
2018-06-01T10:38:07.863Z,117.10
2018-06-01T10:40:35.285Z,106.77
2018-06-01T10:43:02.717Z,129.10
2018-06-01T10:45:30.144Z,117.40
2018-06-01T10:47:57.582Z,121.73
2018-06-01T10:50:25.009Z,138.00
2018-06-01T10:52:52.435Z,109.27
2018-06-01T10:55:19.864Z,127.53
2018-06-01T10:57:47.307Z,149.40
2018-06-01T11:00:14.737Z,156.23
2018-06-01T11:02:42.156Z,133.07
2018-06-01T11:05:09.581Z,86.67
2018-06-01T11:07:37.012Z,112.93
2018-06-01T11:10:04.449Z,138.40
2018-06-01T11:12:31.869Z,120.60
2018-06-01T11:14:59.310Z,102.70
2018-06-01T11:17:26.750Z,101.20
2018-06-01T11:19:54.172Z,77.70
2018-06-01T11:22:21.593Z,96.93
2018-06-01T11:24:49.028Z,118.70
2018-06-01T11:27:16.466Z,120.27
2018-06-01T11:29:43.897Z,124.67
2018-06-01T11:32:11.328Z,121.37
2018-06-01T11:34:38.752Z,137.83
2018-06-01T11:37:06.179Z,128.37
2018-06-01T11:39:33.620Z,141.73
2018-06-01T11:42:01.044Z,140.30
2018-06-01T11:44:28.486Z,115.37
2018-06-01T11:46:55.907Z,146.93
2018-06-01T11:49:24.224Z,130.10
2018-06-01T11:51:51.649Z,157.00
2018-06-01T11:54:19.092Z,145.60
2018-06-01T11:56:46.521Z,147.77
2018-06-01T11:59:13.956Z,129.93
2018-06-01T12:01:41.387Z,197.13
2018-06-01T12:04:08.830Z,145.53
2018-06-01T12:06:36.264Z,181.60
2018-06-01T12:09:03.699Z,147.87
2018-06-01T12:11:31.125Z,157.87
2018-06-01T12:13:58.552Z,140.97
2018-06-01T12:16:25.975Z,152.23
2018-06-01T12:18:53.412Z,148.67
2018-06-01T12:21:20.836Z,143.70
2018-06-01T12:23:48.268Z,133.10
2018-06-01T12:26:15.693Z,177.60
2018-06-01T12:28:43.121Z,199.60
2018-06-01T12:31:10.549Z,162.20
2018-06-01T12:33:37.981Z,149.83
2018-06-01T12:36:05.405Z,174.00
2018-06-01T12:38:32.873Z,164.53
2018-06-01T12:41:00.317Z,124.40
2018-06-01T12:43:27.748Z,134.60
2018-06-01T12:45:55.169Z,147.00
2018-06-01T12:48:22.610Z,204.03
2018-06-01T12:50:50.060Z,215.07
2018-06-01T12:53:17.489Z,148.27
2018-06-01T12:55:45.018Z,165.53
2018-06-01T12:58:12.432Z,143.43
2018-06-01T13:00:39.918Z,210.80
2018-06-01T13:03:07.341Z,187.57
2018-06-01T13:05:34.781Z,165.47
2018-06-01T13:08:02.205Z,157.90
2018-06-01T13:10:29.636Z,195.50
2018-06-01T13:12:57.070Z,148.27
2018-06-01T13:15:24.509Z,155.73
2018-06-01T13:17:51.944Z,147.27
2018-06-01T13:20:19.377Z,184.93
2018-06-01T13:22:46.798Z,178.90
2018-06-01T13:25:14.239Z,175.07
2018-06-01T13:27:41.672Z,167.67
2018-06-01T13:30:09.137Z,215.17
2018-06-01T13:32:36.527Z,206.93
2018-06-01T13:35:03.965Z,250.87
2018-06-01T13:37:31.411Z,173.37
2018-06-01T13:39:58.838Z,217.27
2018-06-01T13:42:26.272Z,197.60
2018-06-01T13:44:53.698Z,192.70
2018-06-01T13:47:21.120Z,171.50
2018-06-01T13:49:48.604Z,173.30
2018-06-01T13:52:16.028Z,191.70
2018-06-01T13:54:43.468Z,134.77
2018-06-01T13:57:10.895Z,170.87
2018-06-01T13:59:38.329Z,190.40
2018-06-01T14:02:05.749Z,171.17
2018-06-01T14:04:33.183Z,164.33
2018-06-01T14:07:00.608Z,154.27
2018-06-01T14:09:28.081Z,159.50
2018-06-01T14:11:55.481Z,198.10
2018-06-01T14:14:22.908Z,208.50
2018-06-01T14:16:50.340Z,239.30
2018-06-01T14:19:17.813Z,280.27
2018-06-01T14:21:45.191Z,230.00
2018-06-01T14:24:12.618Z,174.93
2018-06-01T14:26:40.108Z,157.63
2018-06-01T14:29:07.469Z,180.23
2018-06-01T14:31:34.984Z,150.57
2018-06-01T14:34:02.441Z,157.80
2018-06-01T14:36:29.868Z,153.90
2018-06-01T14:38:57.297Z,217.90
2018-06-01T14:41:24.738Z,146.17
2018-06-01T14:43:52.152Z,177.43
2018-06-01T14:46:19.592Z,185.43
2018-06-01T14:48:47.028Z,204.13
2018-06-01T14:51:14.476Z,131.50
2018-06-01T14:53:41.900Z,126.47
2018-06-01T14:56:09.338Z,143.80
2018-06-01T14:58:36.757Z,127.77
2018-06-01T15:01:04.188Z,134.37
2018-06-01T15:03:31.621Z,117.40
2018-06-01T15:05:59.048Z,128.10
2018-06-01T15:08:26.476Z,111.17
2018-06-01T15:10:53.896Z,98.47
2018-06-01T15:13:21.316Z,97.40
2018-06-01T15:15:48.756Z,106.47
2018-06-01T15:18:16.181Z,118.70
2018-06-01T15:20:43.616Z,113.67
2018-06-01T15:23:11.040Z,110.17
2018-06-01T15:25:38.492Z,109.90
2018-06-01T15:28:05.893Z,83.67
2018-06-01T15:30:33.320Z,103.83
2018-06-01T15:33:00.732Z,55.00
2018-06-01T15:35:28.154Z,71.13
2018-06-01T15:37:55.568Z,86.50
2018-06-01T15:40:22.996Z,64.70
2018-06-01T15:42:50.404Z,67.43
2018-06-01T15:45:17.821Z,64.13
2018-06-01T15:47:45.237Z,47.30
2018-06-01T15:50:12.658Z,61.27
2018-06-01T15:52:40.085Z,63.45
2018-06-01T15:55:07.500Z,79.90
2018-06-01T15:57:34.934Z,72.43
2018-06-01T16:00:02.348Z,78.27
2018-06-01T16:02:29.779Z,69.50
2018-06-01T16:04:57.215Z,65.03
2018-06-01T16:07:24.645Z,50.88
2018-06-01T16:09:52.061Z,53.77
2018-06-01T16:12:19.498Z,68.72
2018-06-01T16:14:46.948Z,81.32
2018-06-01T16:17:14.357Z,81.40
2018-06-01T16:19:41.776Z,61.80
2018-06-01T16:22:09.216Z,50.95
2018-06-01T16:24:36.670Z,58.28
2018-06-01T16:27:04.102Z,55.05
2018-06-01T16:29:31.521Z,82.95
2018-06-01T16:31:58.970Z,61.97
2018-06-01T16:34:26.385Z,76.47
2018-06-01T16:36:53.821Z,71.68
2018-06-01T16:39:21.267Z,101.20
2018-06-01T16:41:48.743Z,83.00
2018-06-01T16:44:16.117Z,89.90
2018-06-01T16:46:43.527Z,78.18
2018-06-01T16:49:10.962Z,88.43
2018-06-01T16:51:38.384Z,112.22
2018-06-01T16:54:05.825Z,59.47
2018-06-01T16:56:33.241Z,65.82
2018-06-01T16:59:00.664Z,69.25
2018-06-01T17:01:28.076Z,55.65
2018-06-01T17:03:55.516Z,70.57
2018-06-01T17:06:22.937Z,54.90
2018-06-01T17:08:50.391Z,65.72
2018-06-01T17:11:17.816Z,56.05
2018-06-01T17:13:45.250Z,51.65
2018-06-01T17:16:12.665Z,60.65
2018-06-01T17:18:40.100Z,56.90
2018-06-01T17:21:07.531Z,55.55
2018-06-01T17:23:35.192Z,56.50
2018-06-01T17:26:02.671Z,55.33
2018-06-01T17:28:30.036Z,53.87
2018-06-01T17:30:57.468Z,66.07
2018-06-01T17:33:24.895Z,61.37
2018-06-01T17:35:52.334Z,63.15
2018-06-01T17:38:19.753Z,60.15
2018-06-01T17:40:47.177Z,52.62
2018-06-01T17:43:14.586Z,44.72
2018-06-01T17:45:42.008Z,36.13
2018-06-01T17:48:09.418Z,39.78
2018-06-01T17:50:36.868Z,38.55
2018-06-01T17:53:04.269Z,48.70
2018-06-01T17:55:31.696Z,31.90
2018-06-01T17:57:59.963Z,54.13
2018-06-01T18:00:27.392Z,39.70
2018-06-01T18:02:54.800Z,35.58
2018-06-01T18:05:22.250Z,28.50
2018-06-01T18:07:49.651Z,37.58
2018-06-01T18:10:17.081Z,43.92
2018-06-01T18:12:44.502Z,54.95
2018-06-01T18:15:12.660Z,40.75
2018-06-01T18:17:40.071Z,35.78
2018-06-01T18:20:07.491Z,45.70
2018-06-01T18:22:35.022Z,27.15
2018-06-01T18:25:02.368Z,51.35
2018-06-01T18:27:29.794Z,39.22
2018-06-01T18:29:57.207Z,29.87
2018-06-01T18:32:24.643Z,26.85
2018-06-01T18:34:52.055Z,29.10
2018-06-01T18:37:19.484Z,35.20
2018-06-01T18:39:46.900Z,25.42
2018-06-01T18:42:14.343Z,30.30
2018-06-01T18:44:41.754Z,29.55
2018-06-01T18:47:09.185Z,35.08
2018-06-01T18:49:36.609Z,39.13
2018-06-01T18:52:04.024Z,34.40
2018-06-01T18:54:31.449Z,32.47
2018-06-01T18:56:58.876Z,37.55
2018-06-01T18:59:26.285Z,28.27
2018-06-01T19:01:53.715Z,36.17
2018-06-01T19:04:21.132Z,27.05
2018-06-01T19:06:48.552Z,32.58
2018-06-01T19:09:15.966Z,30.42
2018-06-01T19:11:43.396Z,26.50
2018-06-01T19:14:10.813Z,22.90
2018-06-01T19:16:38.244Z,29.90
2018-06-01T19:19:05.663Z,34.72
2018-06-01T19:21:33.115Z,28.58
2018-06-01T19:24:00.529Z,28.48
2018-06-01T19:26:27.964Z,32.03
2018-06-01T19:28:55.410Z,27.08
2018-06-01T19:31:22.817Z,31.85
2018-06-01T19:33:50.235Z,29.63
2018-06-01T19:36:17.673Z,32.58
2018-06-01T19:38:45.093Z,31.12
2018-06-01T19:41:12.537Z,28.55
2018-06-01T19:43:39.953Z,26.92
2018-06-01T19:46:07.367Z,30.33
2018-06-01T19:48:34.788Z,23.85
2018-06-01T19:51:02.204Z,25.67
2018-06-01T19:53:29.628Z,27.23
2018-06-01T19:55:57.040Z,23.27
2018-06-01T19:58:24.468Z,26.08
2018-06-01T20:00:51.884Z,22.10
2018-06-01T20:03:20.183Z,20.17
2018-06-01T20:05:47.595Z,25.75
2018-06-01T20:08:15.016Z,29.73
2018-06-01T20:10:42.431Z,20.02
2018-06-01T20:13:09.909Z,26.60
2018-06-01T20:15:37.277Z,31.58
2018-06-01T20:18:04.714Z,34.78
2018-06-01T20:20:32.128Z,26.02
2018-06-01T20:22:59.648Z,49.88
2018-06-01T20:25:27.108Z,31.98
2018-06-01T20:27:54.546Z,29.37
2018-06-01T20:30:21.995Z,28.73
2018-06-01T20:32:49.409Z,38.17
2018-06-01T20:35:16.829Z,34.13
2018-06-01T20:37:44.269Z,33.25
2018-06-01T20:40:11.708Z,35.67
2018-06-01T20:42:39.130Z,30.92
2018-06-01T20:45:06.643Z,29.37
2018-06-01T20:47:34.128Z,24.10
2018-06-01T20:50:01.543Z,27.37
2018-06-01T20:52:29.015Z,28.55
2018-06-01T20:54:56.464Z,25.50
2018-06-01T20:57:23.884Z,30.80
2018-06-01T20:59:51.373Z,24.15
2018-06-01T21:02:18.796Z,36.83
2018-06-01T21:04:46.280Z,31.40
2018-06-01T21:07:13.703Z,33.28
2018-06-01T21:09:41.161Z,35.92
2018-06-01T21:12:08.545Z,30.90
2018-06-01T21:14:36.005Z,31.83
2018-06-01T21:17:03.420Z,34.38
2018-06-01T21:19:30.836Z,33.35
2018-06-01T21:21:58.257Z,25.95
2018-06-01T21:24:25.687Z,20.67
2018-06-01T21:26:53.101Z,26.05
2018-06-01T21:29:20.516Z,19.92
2018-06-01T21:31:47.929Z,24.27
2018-06-01T21:34:15.356Z,33.30
2018-06-01T21:36:42.777Z,23.95
2018-06-01T21:39:10.206Z,21.55
2018-06-01T21:41:37.621Z,18.08
2018-06-01T21:44:05.053Z,18.77
2018-06-01T21:46:32.464Z,24.92
2018-06-01T21:48:59.893Z,23.85
2018-06-01T21:51:27.344Z,24.45
2018-06-01T21:53:54.776Z,20.67
2018-06-01T21:56:22.184Z,21.70
2018-06-01T21:58:49.600Z,19.60
2018-06-01T22:01:17.030Z,16.00
2018-06-01T22:03:44.440Z,18.42
2018-06-01T22:06:11.862Z,21.65
2018-06-01T22:08:39.285Z,24.08
2018-06-01T22:11:06.701Z,21.50
2018-06-01T22:13:34.128Z,25.40
2018-06-01T22:16:01.542Z,21.42
2018-06-01T22:18:28.961Z,21.08
2018-06-01T22:20:56.380Z,17.52
2018-06-01T22:23:23.805Z,21.10
2018-06-01T22:25:51.220Z,28.65
2018-06-01T22:28:18.648Z,26.17
2018-06-01T22:30:46.071Z,20.35
2018-06-01T22:33:13.492Z,18.65
2018-06-01T22:35:40.907Z,29.58
2018-06-01T22:38:08.332Z,17.10
2018-06-01T22:40:35.752Z,20.37
2018-06-01T22:43:03.176Z,18.20
2018-06-01T22:45:30.588Z,16.37
2018-06-01T22:47:58.021Z,20.77
2018-06-01T22:50:25.436Z,23.70
2018-06-01T22:52:52.876Z,17.35
2018-06-01T22:55:20.288Z,23.83
2018-06-01T22:57:47.701Z,20.92
2018-06-01T23:00:20.900Z,20.98
2018-06-01T23:02:48.317Z,24.42
2018-06-01T23:05:15.744Z,17.75
2018-06-01T23:07:43.164Z,22.80
2018-06-01T23:10:10.604Z,22.35
2018-06-01T23:12:38.016Z,14.90
2018-06-01T23:15:05.433Z,18.12
2018-06-01T23:17:32.849Z,22.65
2018-06-01T23:20:00.283Z,21.40
2018-06-01T23:22:27.683Z,20.17
2018-06-01T23:24:55.112Z,18.50
2018-06-01T23:27:22.537Z,18.55
2018-06-01T23:29:49.960Z,19.77
2018-06-01T23:32:17.380Z,19.02
2018-06-01T23:34:44.809Z,25.27
2018-06-01T23:37:12.233Z,26.62
2018-06-01T23:39:39.656Z,27.45
2018-06-01T23:42:07.076Z,25.75
2018-06-01T23:44:34.495Z,25.88
2018-06-01T23:47:01.908Z,30.08
2018-06-01T23:49:29.394Z,22.00
2018-06-01T23:51:56.807Z,20.05
2018-06-01T23:54:24.304Z,23.02
2018-06-01T23:56:51.716Z,20.25
2018-06-01T23:59:19.219Z,23.67
